sensor_id;sensor_type;location;lat;lon;timestamp;pressure;altitude;pressure_sealevel;temperature;humidity
20930;BME280;21895;47.072;15.132;2024-02-26T00:00:31;95639.00;;;2.48;77.11
20930;BME280;21895;47.072;15.132;2024-02-26T00:02:58;95636.00;;;2.31;77.76
20930;BME280;21895;47.072;15.132;2024-02-26T00:05:25;95641.00;;;2.23;77.41
20930;BME280;21895;47.072;15.132;2024-02-26T00:07:51;95629.00;;;2.40;74.44
20930;BME280;21895;47.072;15.132;2024-02-26T00:10:18;95635.00;;;2.17;76.79
20930;BME280;21895;47.072;15.132;2024-02-26T00:12:44;95629.00;;;2.01;76.70
20930;BME280;21895;47.072;15.132;2024-02-26T00:15:11;95625.00;;;1.81;77.20
20930;BME280;21895;47.072;15.132;2024-02-26T00:17:38;95621.00;;;1.70;77.50
20930;BME280;21895;47.072;15.132;2024-02-26T00:20:06;95618.00;;;1.74;78.07
20930;BME280;21895;47.072;15.132;2024-02-26T00:22:36;95614.00;;;1.73;78.48
20930;BME280;21895;47.072;15.132;2024-02-26T00:25:05;95607.00;;;2.06;80.47
20930;BME280;21895;47.072;15.132;2024-02-26T00:27:31;95609.00;;;2.03;80.33
20930;BME280;21895;47.072;15.132;2024-02-26T00:29:58;95605.00;;;1.98;79.76
20930;BME280;21895;47.072;15.132;2024-02-26T00:32:24;95599.00;;;2.18;79.75
20930;BME280;21895;47.072;15.132;2024-02-26T00:34:51;95596.00;;;2.41;79.48
20930;BME280;21895;47.072;15.132;2024-02-26T00:37:18;95600.00;;;2.43;79.55
20930;BME280;21895;47.072;15.132;2024-02-26T00:39:45;95592.00;;;2.48;79.35
20930;BME280;21895;47.072;15.132;2024-02-26T00:42:12;95596.00;;;2.47;79.26
20930;BME280;21895;47.072;15.132;2024-02-26T00:44:39;95601.00;;;2.57;79.17
20930;BME280;21895;47.072;15.132;2024-02-26T00:47:06;95602.00;;;2.58;78.43
20930;BME280;21895;47.072;15.132;2024-02-26T00:49:32;95600.00;;;2.54;78.76
20930;BME280;21895;47.072;15.132;2024-02-26T00:51:59;95598.00;;;2.37;76.61
20930;BME280;21895;47.072;15.132;2024-02-26T00:54:25;95591.00;;;2.09;74.88
20930;BME280;21895;47.072;15.132;2024-02-26T00:56:52;95595.00;;;1.77;75.28
20930;BME280;21895;47.072;15.132;2024-02-26T00:59:19;95595.00;;;1.64;76.00
20930;BME280;21895;47.072;15.132;2024-02-26T01:01:45;95585.00;;;1.79;77.02
20930;BME280;21895;47.072;15.132;2024-02-26T01:04:12;95588.00;;;1.73;77.68
20930;BME280;21895;47.072;15.132;2024-02-26T01:06:38;95585.00;;;1.66;77.19
20930;BME280;21895;47.072;15.132;2024-02-26T01:09:06;95586.00;;;1.75;77.33
20930;BME280;21895;47.072;15.132;2024-02-26T01:11:32;95578.00;;;1.60;76.48
20930;BME280;21895;47.072;15.132;2024-02-26T01:13:59;95574.00;;;1.42;78.10
20930;BME280;21895;47.072;15.132;2024-02-26T01:16:26;95573.00;;;1.80;79.92
20930;BME280;21895;47.072;15.132;2024-02-26T01:18:55;95568.00;;;1.97;79.58
20930;BME280;21895;47.072;15.132;2024-02-26T01:21:21;95566.00;;;1.69;76.47
20930;BME280;21895;47.072;15.132;2024-02-26T01:23:48;95555.00;;;1.52;76.84
20930;BME280;21895;47.072;15.132;2024-02-26T01:26:14;95559.00;;;1.40;77.67
20930;BME280;21895;47.072;15.132;2024-02-26T01:28:41;95552.00;;;1.50;79.21
20930;BME280;21895;47.072;15.132;2024-02-26T01:31:09;95552.00;;;1.53;75.89
20930;BME280;21895;47.072;15.132;2024-02-26T01:33:36;95545.00;;;1.19;76.60
20930;BME280;21895;47.072;15.132;2024-02-26T01:36:03;95549.00;;;1.15;78.18
20930;BME280;21895;47.072;15.132;2024-02-26T01:38:30;95545.00;;;1.29;79.08
20930;BME280;21895;47.072;15.132;2024-02-26T01:40:57;95543.00;;;1.31;77.33
20930;BME280;21895;47.072;15.132;2024-02-26T01:43:23;95534.00;;;1.70;80.53
20930;BME280;21895;47.072;15.132;2024-02-26T01:45:50;95532.00;;;1.76;81.19
20930;BME280;21895;47.072;15.132;2024-02-26T01:48:16;95535.00;;;1.76;81.27
20930;BME280;21895;47.072;15.132;2024-02-26T01:50:43;95530.00;;;1.91;80.91
20930;BME280;21895;47.072;15.132;2024-02-26T01:53:11;95534.00;;;1.90;77.96
20930;BME280;21895;47.072;15.132;2024-02-26T01:55:39;95524.00;;;1.73;75.75
20930;BME280;21895;47.072;15.132;2024-02-26T01:58:06;95526.00;;;1.27;76.58
20930;BME280;21895;47.072;15.132;2024-02-26T02:00:33;95524.00;;;1.44;80.43
20930;BME280;21895;47.072;15.132;2024-02-26T02:03:02;95524.00;;;1.72;79.12
20930;BME280;21895;47.072;15.132;2024-02-26T02:05:30;95514.00;;;1.86;79.07
20930;BME280;21895;47.072;15.132;2024-02-26T02:07:57;95519.00;;;1.87;79.72
20930;BME280;21895;47.072;15.132;2024-02-26T02:10:26;95516.00;;;1.61;75.58
20930;BME280;21895;47.072;15.132;2024-02-26T02:12:53;95516.00;;;1.39;75.66
20930;BME280;21895;47.072;15.132;2024-02-26T02:15:20;95514.00;;;1.23;76.79
20930;BME280;21895;47.072;15.132;2024-02-26T02:17:47;95520.00;;;1.22;76.76
20930;BME280;21895;47.072;15.132;2024-02-26T02:20:17;95529.00;;;1.26;76.55
20930;BME280;21895;47.072;15.132;2024-02-26T02:22:47;95520.00;;;1.27;77.83
20930;BME280;21895;47.072;15.132;2024-02-26T02:25:14;95529.00;;;1.30;78.98
20930;BME280;21895;47.072;15.132;2024-02-26T02:27:42;95529.00;;;1.31;76.34
20930;BME280;21895;47.072;15.132;2024-02-26T02:30:10;95530.00;;;0.97;75.35
20930;BME280;21895;47.072;15.132;2024-02-26T02:32:40;95521.00;;;0.68;77.23
20930;BME280;21895;47.072;15.132;2024-02-26T02:35:10;95520.00;;;0.82;78.54
20930;BME280;21895;47.072;15.132;2024-02-26T02:37:36;95520.00;;;0.70;78.38
20930;BME280;21895;47.072;15.132;2024-02-26T02:40:04;95512.00;;;0.70;79.21
20930;BME280;21895;47.072;15.132;2024-02-26T02:42:31;95516.00;;;0.91;78.21
20930;BME280;21895;47.072;15.132;2024-02-26T02:44:58;95515.00;;;0.85;79.02
20930;BME280;21895;47.072;15.132;2024-02-26T02:47:24;95515.00;;;0.90;79.57
20930;BME280;21895;47.072;15.132;2024-02-26T02:49:51;95517.00;;;0.95;79.22
20930;BME280;21895;47.072;15.132;2024-02-26T02:52:18;95520.00;;;0.97;78.25
20930;BME280;21895;47.072;15.132;2024-02-26T02:54:44;95518.00;;;0.99;77.60
20930;BME280;21895;47.072;15.132;2024-02-26T02:57:11;95517.00;;;0.75;77.51
20930;BME280;21895;47.072;15.132;2024-02-26T02:59:38;95510.00;;;0.87;77.82
20930;BME280;21895;47.072;15.132;2024-02-26T03:02:05;95511.00;;;0.81;77.28
20930;BME280;21895;47.072;15.132;2024-02-26T03:04:32;95506.00;;;0.88;78.02
20930;BME280;21895;47.072;15.132;2024-02-26T03:06:59;95508.00;;;0.86;78.99
20930;BME280;21895;47.072;15.132;2024-02-26T03:09:26;95503.00;;;0.91;77.65
20930;BME280;21895;47.072;15.132;2024-02-26T03:11:53;95504.00;;;0.74;76.79
20930;BME280;21895;47.072;15.132;2024-02-26T03:14:20;95497.00;;;0.44;77.18
20930;BME280;21895;47.072;15.132;2024-02-26T03:16:46;95496.00;;;0.54;78.47
20930;BME280;21895;47.072;15.132;2024-02-26T03:19:16;95496.00;;;0.75;78.32
20930;BME280;21895;47.072;15.132;2024-02-26T03:21:43;95499.00;;;0.70;79.18
20930;BME280;21895;47.072;15.132;2024-02-26T03:24:09;95501.00;;;0.62;78.85
20930;BME280;21895;47.072;15.132;2024-02-26T03:26:37;95495.00;;;0.78;79.06
20930;BME280;21895;47.072;15.132;2024-02-26T03:29:04;95497.00;;;1.19;80.14
20930;BME280;21895;47.072;15.132;2024-02-26T03:31:31;95501.00;;;1.25;80.76
20930;BME280;21895;47.072;15.132;2024-02-26T03:33:57;95497.00;;;1.18;81.10
20930;BME280;21895;47.072;15.132;2024-02-26T03:36:24;95494.00;;;1.24;80.90
20930;BME280;21895;47.072;15.132;2024-02-26T03:38:51;95496.00;;;1.50;78.03
20930;BME280;21895;47.072;15.132;2024-02-26T03:41:22;95498.00;;;1.31;77.61
20930;BME280;21895;47.072;15.132;2024-02-26T03:43:49;95503.00;;;1.19;76.67
20930;BME280;21895;47.072;15.132;2024-02-26T03:46:16;95498.00;;;1.01;77.59
20930;BME280;21895;47.072;15.132;2024-02-26T03:48:43;95494.00;;;1.00;77.36
20930;BME280;21895;47.072;15.132;2024-02-26T03:51:09;95491.00;;;0.90;77.35
20930;BME280;21895;47.072;15.132;2024-02-26T03:53:37;95488.00;;;0.95;76.47
20930;BME280;21895;47.072;15.132;2024-02-26T03:56:05;95491.00;;;0.85;77.97
20930;BME280;21895;47.072;15.132;2024-02-26T03:58:32;95500.00;;;0.81;78.32
20930;BME280;21895;47.072;15.132;2024-02-26T04:01:00;95485.00;;;1.04;78.58
20930;BME280;21895;47.072;15.132;2024-02-26T04:03:27;95482.00;;;1.26;79.64
20930;BME280;21895;47.072;15.132;2024-02-26T04:05:53;95486.00;;;1.27;79.30
20930;BME280;21895;47.072;15.132;2024-02-26T04:08:20;95474.00;;;1.02;77.44
20930;BME280;21895;47.072;15.132;2024-02-26T04:10:47;95485.00;;;1.03;78.08
20930;BME280;21895;47.072;15.132;2024-02-26T04:13:13;95477.00;;;1.08;78.57
20930;BME280;21895;47.072;15.132;2024-02-26T04:15:40;95478.00;;;0.99;78.04
20930;BME280;21895;47.072;15.132;2024-02-26T04:18:06;95486.00;;;0.99;77.33
20930;BME280;21895;47.072;15.132;2024-02-26T04:20:33;95486.00;;;0.94;77.14
20930;BME280;21895;47.072;15.132;2024-02-26T04:23:00;95481.00;;;0.76;77.36
20930;BME280;21895;47.072;15.132;2024-02-26T04:25:26;95481.00;;;0.65;77.30
20930;BME280;21895;47.072;15.132;2024-02-26T04:27:54;95485.00;;;0.85;75.80
20930;BME280;21895;47.072;15.132;2024-02-26T04:30:21;95487.00;;;0.64;76.60
20930;BME280;21895;47.072;15.132;2024-02-26T04:32:48;95482.00;;;0.81;77.68
20930;BME280;21895;47.072;15.132;2024-02-26T04:35:15;95492.00;;;0.74;77.89
20930;BME280;21895;47.072;15.132;2024-02-26T04:37:41;95482.00;;;0.88;77.53
20930;BME280;21895;47.072;15.132;2024-02-26T04:40:08;95484.00;;;0.81;78.33
20930;BME280;21895;47.072;15.132;2024-02-26T04:42:35;95488.00;;;0.73;78.07
20930;BME280;21895;47.072;15.132;2024-02-26T04:45:02;95481.00;;;0.72;77.35
20930;BME280;21895;47.072;15.132;2024-02-26T04:47:28;95487.00;;;0.70;78.35
20930;BME280;21895;47.072;15.132;2024-02-26T04:49:56;95480.00;;;0.60;79.24
20930;BME280;21895;47.072;15.132;2024-02-26T04:52:23;95487.00;;;0.70;78.56
20930;BME280;21895;47.072;15.132;2024-02-26T04:54:49;95477.00;;;0.40;78.41
20930;BME280;21895;47.072;15.132;2024-02-26T04:57:16;95478.00;;;0.54;80.29
20930;BME280;21895;47.072;15.132;2024-02-26T04:59:45;95476.00;;;0.65;79.62
20930;BME280;21895;47.072;15.132;2024-02-26T05:02:12;95477.00;;;0.57;78.81
20930;BME280;21895;47.072;15.132;2024-02-26T05:04:39;95479.00;;;0.56;78.80
20930;BME280;21895;47.072;15.132;2024-02-26T05:07:06;95480.00;;;0.68;78.15
20930;BME280;21895;47.072;15.132;2024-02-26T05:09:32;95467.00;;;0.54;78.62
20930;BME280;21895;47.072;15.132;2024-02-26T05:11:59;95488.00;;;0.80;79.34
20930;BME280;21895;47.072;15.132;2024-02-26T05:14:26;95474.00;;;0.68;76.63
20930;BME280;21895;47.072;15.132;2024-02-26T05:16:52;95468.00;;;0.31;77.65
20930;BME280;21895;47.072;15.132;2024-02-26T05:19:19;95475.00;;;0.38;78.60
20930;BME280;21895;47.072;15.132;2024-02-26T05:21:45;95471.00;;;0.36;78.43
20930;BME280;21895;47.072;15.132;2024-02-26T05:24:15;95494.00;;;0.47;78.72
20930;BME280;21895;47.072;15.132;2024-02-26T05:26:45;95470.00;;;0.44;78.11
20930;BME280;21895;47.072;15.132;2024-02-26T05:29:11;95481.00;;;0.44;80.98
20930;BME280;21895;47.072;15.132;2024-02-26T05:31:38;95474.00;;;0.48;81.19
20930;BME280;21895;47.072;15.132;2024-02-26T05:34:07;95476.00;;;0.64;80.21
20930;BME280;21895;47.072;15.132;2024-02-26T05:36:34;95476.00;;;0.84;78.23
20930;BME280;21895;47.072;15.132;2024-02-26T05:39:01;95467.00;;;0.70;78.88
20930;BME280;21895;47.072;15.132;2024-02-26T05:41:28;95462.00;;;0.80;77.99
20930;BME280;21895;47.072;15.132;2024-02-26T05:43:55;95466.00;;;0.74;76.65
20930;BME280;21895;47.072;15.132;2024-02-26T05:46:22;95471.00;;;0.53;76.12
20930;BME280;21895;47.072;15.132;2024-02-26T05:48:51;95479.00;;;0.48;75.01
20930;BME280;21895;47.072;15.132;2024-02-26T05:51:18;95474.00;;;0.15;76.04
20930;BME280;21895;47.072;15.132;2024-02-26T05:53:45;95475.00;;;0.29;77.12
20930;BME280;21895;47.072;15.132;2024-02-26T05:56:13;95477.00;;;0.36;77.91
20930;BME280;21895;47.072;15.132;2024-02-26T05:58:39;95477.00;;;0.45;77.55
20930;BME280;21895;47.072;15.132;2024-02-26T06:01:06;95482.00;;;0.43;75.86
20930;BME280;21895;47.072;15.132;2024-02-26T06:03:34;95487.00;;;0.25;75.51
20930;BME280;21895;47.072;15.132;2024-02-26T06:06:03;95488.00;;;0.24;75.05
20930;BME280;21895;47.072;15.132;2024-02-26T06:08:34;95487.00;;;0.03;75.60
20930;BME280;21895;47.072;15.132;2024-02-26T06:11:08;95503.00;;;0.07;75.63
20930;BME280;21895;47.072;15.132;2024-02-26T06:13:35;95501.00;;;0.12;76.08
20930;BME280;21895;47.072;15.132;2024-02-26T06:16:02;95492.00;;;0.15;76.07
20930;BME280;21895;47.072;15.132;2024-02-26T06:18:28;95489.00;;;0.18;75.49
20930;BME280;21895;47.072;15.132;2024-02-26T06:20:55;95496.00;;;0.06;76.83
20930;BME280;21895;47.072;15.132;2024-02-26T06:23:23;95504.00;;;0.25;78.39
20930;BME280;21895;47.072;15.132;2024-02-26T06:25:49;95508.00;;;0.55;77.12
20930;BME280;21895;47.072;15.132;2024-02-26T06:28:16;95510.00;;;0.68;76.76
20930;BME280;21895;47.072;15.132;2024-02-26T06:30:43;95518.00;;;0.82;76.27
20930;BME280;21895;47.072;15.132;2024-02-26T06:33:09;95513.00;;;0.73;76.49
20930;BME280;21895;47.072;15.132;2024-02-26T06:35:37;95521.00;;;0.83;76.13
20930;BME280;21895;47.072;15.132;2024-02-26T06:38:04;95523.00;;;0.86;77.04
20930;BME280;21895;47.072;15.132;2024-02-26T06:40:31;95534.00;;;0.83;77.36
20930;BME280;21895;47.072;15.132;2024-02-26T06:42:57;95542.00;;;0.94;78.51
20930;BME280;21895;47.072;15.132;2024-02-26T06:45:24;95537.00;;;1.36;77.23
20930;BME280;21895;47.072;15.132;2024-02-26T06:47:51;95538.00;;;1.38;77.61
20930;BME280;21895;47.072;15.132;2024-02-26T06:50:18;95539.00;;;1.52;76.36
20930;BME280;21895;47.072;15.132;2024-02-26T06:52:45;95542.00;;;1.42;75.30
20930;BME280;21895;47.072;15.132;2024-02-26T06:55:14;95540.00;;;1.42;75.84
20930;BME280;21895;47.072;15.132;2024-02-26T06:57:41;95554.00;;;1.56;76.17
20930;BME280;21895;47.072;15.132;2024-02-26T07:00:08;95547.00;;;1.70;76.49
20930;BME280;21895;47.072;15.132;2024-02-26T07:02:38;95548.00;;;1.81;75.93
20930;BME280;21895;47.072;15.132;2024-02-26T07:05:07;95557.00;;;1.85;76.67
20930;BME280;21895;47.072;15.132;2024-02-26T07:07:33;95541.00;;;2.00;76.21
20930;BME280;21895;47.072;15.132;2024-02-26T07:10:00;95544.00;;;2.18;76.92
20930;BME280;21895;47.072;15.132;2024-02-26T07:12:32;95546.00;;;2.33;76.39
20930;BME280;21895;47.072;15.132;2024-02-26T07:14:59;95545.00;;;2.38;75.65
20930;BME280;21895;47.072;15.132;2024-02-26T07:17:25;95548.00;;;2.39;75.57
20930;BME280;21895;47.072;15.132;2024-02-26T07:19:52;95538.00;;;2.64;75.40
20930;BME280;21895;47.072;15.132;2024-02-26T07:22:19;95537.00;;;2.70;74.98
20930;BME280;21895;47.072;15.132;2024-02-26T07:24:46;95543.00;;;2.86;74.91
20930;BME280;21895;47.072;15.132;2024-02-26T07:27:12;95543.00;;;2.96;73.96
20930;BME280;21895;47.072;15.132;2024-02-26T07:29:39;95538.00;;;3.08;73.76
20930;BME280;21895;47.072;15.132;2024-02-26T07:32:06;95551.00;;;3.09;74.83
20930;BME280;21895;47.072;15.132;2024-02-26T07:34:33;95542.00;;;3.15;75.16
20930;BME280;21895;47.072;15.132;2024-02-26T07:36:59;95553.00;;;3.40;74.53
20930;BME280;21895;47.072;15.132;2024-02-26T07:39:26;95549.00;;;3.42;73.76
20930;BME280;21895;47.072;15.132;2024-02-26T07:41:52;95548.00;;;3.67;73.79
20930;BME280;21895;47.072;15.132;2024-02-26T07:44:19;95550.00;;;3.73;73.44
20930;BME280;21895;47.072;15.132;2024-02-26T07:46:47;95556.00;;;3.89;72.96
20930;BME280;21895;47.072;15.132;2024-02-26T07:49:13;95559.00;;;4.04;72.75
20930;BME280;21895;47.072;15.132;2024-02-26T07:51:40;95553.00;;;4.25;72.39
20930;BME280;21895;47.072;15.132;2024-02-26T07:54:07;95555.00;;;4.49;71.92
20930;BME280;21895;47.072;15.132;2024-02-26T07:56:34;95563.00;;;4.56;71.12
20930;BME280;21895;47.072;15.132;2024-02-26T07:59:00;95565.00;;;4.71;71.46
20930;BME280;21895;47.072;15.132;2024-02-26T08:01:27;95563.00;;;4.92;71.81
20930;BME280;21895;47.072;15.132;2024-02-26T08:03:54;95555.00;;;5.10;70.22
20930;BME280;21895;47.072;15.132;2024-02-26T08:06:21;95560.00;;;5.25;70.51
20930;BME280;21895;47.072;15.132;2024-02-26T08:08:48;95554.00;;;5.23;70.34
20930;BME280;21895;47.072;15.132;2024-02-26T08:11:15;95554.00;;;5.51;69.91
20930;BME280;21895;47.072;15.132;2024-02-26T08:13:42;95554.00;;;5.63;69.64
20930;BME280;21895;47.072;15.132;2024-02-26T08:16:09;95549.00;;;5.93;67.82
20930;BME280;21895;47.072;15.132;2024-02-26T08:18:35;95554.00;;;6.16;68.03
20930;BME280;21895;47.072;15.132;2024-02-26T08:21:02;95553.00;;;6.64;67.55
20930;BME280;21895;47.072;15.132;2024-02-26T08:23:29;95552.00;;;6.74;66.94
20930;BME280;21895;47.072;15.132;2024-02-26T08:25:55;95542.00;;;6.86;67.25
20930;BME280;21895;47.072;15.132;2024-02-26T08:28:22;95548.00;;;6.91;66.93
20930;BME280;21895;47.072;15.132;2024-02-26T08:30:48;95541.00;;;7.17;67.08
20930;BME280;21895;47.072;15.132;2024-02-26T08:33:15;95546.00;;;7.10;67.81
20930;BME280;21895;47.072;15.132;2024-02-26T08:35:42;95541.00;;;7.27;67.62
20930;BME280;21895;47.072;15.132;2024-02-26T08:38:08;95543.00;;;7.60;67.00
20930;BME280;21895;47.072;15.132;2024-02-26T08:40:35;95524.00;;;7.50;66.22
20930;BME280;21895;47.072;15.132;2024-02-26T08:43:01;95540.00;;;7.59;64.93
20930;BME280;21895;47.072;15.132;2024-02-26T08:45:28;95538.00;;;7.69;67.27
20930;BME280;21895;47.072;15.132;2024-02-26T08:48:00;95546.00;;;8.07;65.94
20930;BME280;21895;47.072;15.132;2024-02-26T08:50:27;95542.00;;;8.22;65.83
20930;BME280;21895;47.072;15.132;2024-02-26T08:52:53;95545.00;;;8.49;64.93
20930;BME280;21895;47.072;15.132;2024-02-26T08:55:20;95536.00;;;8.76;64.06
20930;BME280;21895;47.072;15.132;2024-02-26T08:57:47;95538.00;;;8.99;62.86
20930;BME280;21895;47.072;15.132;2024-02-26T09:00:15;95534.00;;;9.15;62.72
20930;BME280;21895;47.072;15.132;2024-02-26T09:02:43;95522.00;;;9.28;60.26
20930;BME280;21895;47.072;15.132;2024-02-26T09:05:10;95522.00;;;9.68;54.12
20930;BME280;21895;47.072;15.132;2024-02-26T09:07:37;95521.00;;;9.91;51.19
20930;BME280;21895;47.072;15.132;2024-02-26T09:10:05;95522.00;;;10.12;50.10
20930;BME280;21895;47.072;15.132;2024-02-26T09:12:32;95524.00;;;10.40;49.09
20930;BME280;21895;47.072;15.132;2024-02-26T09:14:59;95527.00;;;10.67;48.28
20930;BME280;21895;47.072;15.132;2024-02-26T09:17:25;95518.00;;;10.87;47.74
20930;BME280;21895;47.072;15.132;2024-02-26T09:19:52;95521.00;;;11.25;48.45
20930;BME280;21895;47.072;15.132;2024-02-26T09:22:18;95528.00;;;11.43;48.07
20930;BME280;21895;47.072;15.132;2024-02-26T09:24:45;95527.00;;;11.47;47.73
20930;BME280;21895;47.072;15.132;2024-02-26T09:27:12;95531.00;;;11.53;48.14
20930;BME280;21895;47.072;15.132;2024-02-26T09:29:39;95536.00;;;11.33;47.47
20930;BME280;21895;47.072;15.132;2024-02-26T09:32:06;95532.00;;;11.30;48.21
20930;BME280;21895;47.072;15.132;2024-02-26T09:34:32;95529.00;;;11.15;47.88
20930;BME280;21895;47.072;15.132;2024-02-26T09:37:00;95546.00;;;11.24;48.34
20930;BME280;21895;47.072;15.132;2024-02-26T09:39:41;95540.00;;;11.44;48.73
20930;BME280;21895;47.072;15.132;2024-02-26T09:42:10;95546.00;;;11.71;46.89
20930;BME280;21895;47.072;15.132;2024-02-26T09:44:40;95535.00;;;11.71;46.87
20930;BME280;21895;47.072;15.132;2024-02-26T09:47:12;95544.00;;;11.85;44.95
20930;BME280;21895;47.072;15.132;2024-02-26T09:49:43;95554.00;;;11.68;45.29
20930;BME280;21895;47.072;15.132;2024-02-26T09:52:10;95541.00;;;11.76;45.60
20930;BME280;21895;47.072;15.132;2024-02-26T09:54:39;95545.00;;;11.99;45.03
20930;BME280;21895;47.072;15.132;2024-02-26T09:57:10;95543.00;;;11.95;46.18
20930;BME280;21895;47.072;15.132;2024-02-26T09:59:43;95537.00;;;11.93;46.23
20930;BME280;21895;47.072;15.132;2024-02-26T10:02:15;95547.00;;;11.97;45.65
20930;BME280;21895;47.072;15.132;2024-02-26T10:04:42;95538.00;;;11.87;45.93
20930;BME280;21895;47.072;15.132;2024-02-26T10:07:16;95543.00;;;11.88;45.69
20930;BME280;21895;47.072;15.132;2024-02-26T10:09:42;95543.00;;;11.64;45.66
20930;BME280;21895;47.072;15.132;2024-02-26T10:12:11;95541.00;;;11.56;45.32
20930;BME280;21895;47.072;15.132;2024-02-26T10:14:42;95547.00;;;11.45;45.34
20930;BME280;21895;47.072;15.132;2024-02-26T10:17:09;95549.00;;;11.22;46.44
20930;BME280;21895;47.072;15.132;2024-02-26T10:19:36;95550.00;;;11.51;45.15
20930;BME280;21895;47.072;15.132;2024-02-26T10:22:05;95541.00;;;11.28;46.43
20930;BME280;21895;47.072;15.132;2024-02-26T10:24:32;95544.00;;;11.07;46.41
20930;BME280;21895;47.072;15.132;2024-02-26T10:27:02;95533.00;;;11.14;46.58
20930;BME280;21895;47.072;15.132;2024-02-26T10:29:29;95533.00;;;11.04;47.04
20930;BME280;21895;47.072;15.132;2024-02-26T10:31:56;95535.00;;;11.26;46.44
20930;BME280;21895;47.072;15.132;2024-02-26T10:34:23;95542.00;;;11.40;46.48
20930;BME280;21895;47.072;15.132;2024-02-26T10:36:50;95551.00;;;11.39;45.97
20930;BME280;21895;47.072;15.132;2024-02-26T10:39:20;95540.00;;;11.56;45.04
20930;BME280;21895;47.072;15.132;2024-02-26T10:41:48;95542.00;;;11.84;44.84
20930;BME280;21895;47.072;15.132;2024-02-26T10:44:14;95551.00;;;12.34;43.51
20930;BME280;21895;47.072;15.132;2024-02-26T10:46:47;95550.00;;;12.61;42.46
20930;BME280;21895;47.072;15.132;2024-02-26T10:49:17;95543.00;;;12.73;41.98
20930;BME280;21895;47.072;15.132;2024-02-26T10:51:54;95553.00;;;12.98;41.63
20930;BME280;21895;47.072;15.132;2024-02-26T10:54:26;95548.00;;;12.83;40.97
20930;BME280;21895;47.072;15.132;2024-02-26T10:56:56;95545.00;;;12.74;41.66
20930;BME280;21895;47.072;15.132;2024-02-26T10:59:24;95550.00;;;12.79;42.07
20930;BME280;21895;47.072;15.132;2024-02-26T11:01:51;95546.00;;;12.82;41.92
20930;BME280;21895;47.072;15.132;2024-02-26T11:04:20;95551.00;;;12.99;41.42
20930;BME280;21895;47.072;15.132;2024-02-26T11:06:49;95552.00;;;12.87;41.38
20930;BME280;21895;47.072;15.132;2024-02-26T11:09:19;95557.00;;;13.13;40.45
20930;BME280;21895;47.072;15.132;2024-02-26T11:11:48;95541.00;;;12.92;40.77
20930;BME280;21895;47.072;15.132;2024-02-26T11:14:15;95549.00;;;12.87;41.54
20930;BME280;21895;47.072;15.132;2024-02-26T11:16:43;95556.00;;;12.66;41.33
20930;BME280;21895;47.072;15.132;2024-02-26T11:19:11;95553.00;;;12.93;40.52
20930;BME280;21895;47.072;15.132;2024-02-26T11:21:40;95551.00;;;13.22;41.14
20930;BME280;21895;47.072;15.132;2024-02-26T11:24:12;95531.00;;;13.27;42.03
20930;BME280;21895;47.072;15.132;2024-02-26T11:26:54;95538.00;;;13.54;41.73
20930;BME280;21895;47.072;15.132;2024-02-26T11:29:47;95534.00;;;13.66;40.95
20930;BME280;21895;47.072;15.132;2024-02-26T11:32:14;95525.00;;;13.67;42.06
20930;BME280;21895;47.072;15.132;2024-02-26T11:34:42;95534.00;;;13.80;41.23
20930;BME280;21895;47.072;15.132;2024-02-26T11:37:17;95532.00;;;14.09;41.07
20930;BME280;21895;47.072;15.132;2024-02-26T11:39:45;95520.00;;;14.19;41.20
20930;BME280;21895;47.072;15.132;2024-02-26T11:42:15;95536.00;;;13.85;40.88
20930;BME280;21895;47.072;15.132;2024-02-26T11:44:42;95529.00;;;13.85;40.08
20930;BME280;21895;47.072;15.132;2024-02-26T11:47:27;95530.00;;;13.79;40.99
20930;BME280;21895;47.072;15.132;2024-02-26T11:49:53;95529.00;;;13.92;40.16
20930;BME280;21895;47.072;15.132;2024-02-26T11:52:20;95527.00;;;13.91;40.02
20930;BME280;21895;47.072;15.132;2024-02-26T11:54:56;95528.00;;;13.81;42.75
20930;BME280;21895;47.072;15.132;2024-02-26T11:57:37;95525.00;;;13.84;41.14
20930;BME280;21895;47.072;15.132;2024-02-26T12:00:23;95524.00;;;13.91;40.77
20930;BME280;21895;47.072;15.132;2024-02-26T12:02:55;95543.00;;;13.79;39.77
20930;BME280;21895;47.072;15.132;2024-02-26T12:05:32;95523.00;;;13.42;41.02
20930;BME280;21895;47.072;15.132;2024-02-26T12:08:08;95530.00;;;13.47;40.54
20930;BME280;21895;47.072;15.132;2024-02-26T12:10:37;95527.00;;;13.14;40.58
20930;BME280;21895;47.072;15.132;2024-02-26T12:13:16;95531.00;;;13.01;41.37
20930;BME280;21895;47.072;15.132;2024-02-26T12:15:57;95531.00;;;12.89;41.43
20930;BME280;21895;47.072;15.132;2024-02-26T12:18:26;95527.00;;;12.99;41.57
20930;BME280;21895;47.072;15.132;2024-02-26T12:26:10;95528.00;;;13.06;41.29
20930;BME280;21895;47.072;15.132;2024-02-26T12:28:41;95509.00;;;13.16;41.24
20930;BME280;21895;47.072;15.132;2024-02-26T12:31:08;95520.00;;;13.25;41.90
20930;BME280;21895;47.072;15.132;2024-02-26T12:33:35;95515.00;;;13.20;42.07
20930;BME280;21895;47.072;15.132;2024-02-26T12:36:03;95519.00;;;13.55;40.94
20930;BME280;21895;47.072;15.132;2024-02-26T12:38:30;95512.00;;;13.37;41.11
20930;BME280;21895;47.072;15.132;2024-02-26T12:40:56;95524.00;;;13.04;40.98
20930;BME280;21895;47.072;15.132;2024-02-26T12:43:23;95527.00;;;12.94;41.86
20930;BME280;21895;47.072;15.132;2024-02-26T12:45:50;95521.00;;;13.05;41.67
20930;BME280;21895;47.072;15.132;2024-02-26T12:48:16;95534.00;;;13.18;41.00
20930;BME280;21895;47.072;15.132;2024-02-26T12:50:46;95529.00;;;13.46;41.19
20930;BME280;21895;47.072;15.132;2024-02-26T12:53:13;95529.00;;;13.26;40.68
20930;BME280;21895;47.072;15.132;2024-02-26T12:55:40;95527.00;;;13.28;41.21
20930;BME280;21895;47.072;15.132;2024-02-26T12:58:08;95521.00;;;13.19;41.63
20930;BME280;21895;47.072;15.132;2024-02-26T13:00:36;95529.00;;;12.93;42.23
20930;BME280;21895;47.072;15.132;2024-02-26T13:03:03;95538.00;;;12.87;41.65
20930;BME280;21895;47.072;15.132;2024-02-26T13:05:31;95533.00;;;12.77;42.66